Sagar Sampada — VWXS — position and weather

sailwx.info

Track history (hours):
 
Tides and Currents Weather Stations Pressure Air Temp Water Temp Dewpoint Dewpoint Depression Visibility Wind Speed Wind Dir Waves Ship Positions

Oceanographic research ship Sagar Sampada (India)

Detailed information on ship capabilities available from University of Delaware's Ocean Information Center.

Last reported at 2018-Jun-22 00:08 UTC. Time now 2018-Jun-23 04:46 UTC.
Position N 12°42' E 074°24'.

Type: Other ship. MMSI: 419323000.

Wind from 110 at 51 knots

Date/timePositionNaut miles runAvg speedWind from/ knotsBaromVisibWave heightAir tempDewpointWater temp
2018-Jun-22 00:08N 12°42' E 074°24'12 3.9 110 / 51
2018-Jun-21 21:08N 12°42' E 074°12'0 0.0 320 / 62
2018-Jun-21 18:08N 12°42' E 074°12'13 2.2 010 / 581008.3 26.4
2018-Jun-21 12:08N 12°36' E 074°00'37 4.1 250 / 621005.6 28.5
2018-Jun-21 03:08N 12°24' E 073°24'8 2.8 360 / 62
2018-Jun-21 00:08N 12°18' E 073°30'8 2.8 320 / 60
2018-Jun-20 21:08N 12°12' E 073°36'13 4.5 320 / 62
2018-Jun-20 18:08N 12°00' E 073°42'102 2.6 340 / 60
2018-Jun-19 03:08N 11°00' E 075°06'6 2.0 140 / 64
2018-Jun-19 00:08N 11°00' E 075°12'13 2.2 310 / 64 27.7
2018-Jun-18 18:08N 11°06' E 075°24'66 3.2 200 / 581009.3 29.3
2018-Jun-17 21:08N 10°00' E 075°18'22 2.3 310 / 581008.6 27.6
2018-Jun-17 11:38N 09°42' E 075°30'13 1.6 240 / 171008.4 28.7
2018-Jun-17 03:08N 09°48' E 075°42'12 3.9 230 / 161011.4 28.2
2018-Jun-17 00:08N 09°48' E 075°54'13 4.4 230 / 23
2018-Jun-16 21:08N 09°54' E 076°06'13 3.8 170 / 19
2018-Jun-16 17:38N 10°00' E 076°18'0 0.0 160 / 6
2018-Jun-16 12:08N 10°00' E 076°18'0 0.0 160 / 6
2018-Jun-16 09:08N 10°00' E 076°18'0 0.0 210 / 101009.4 29.3
2018-Jun-16 06:08N 10°00' E 076°18'0 0.0 280 / 41010.3 31.2
2018-Jun-16 03:08N 10°00' E 076°18'0 0.0 130
2018-Jun-16 00:08N 10°00' E 076°18'0 0.0 020 / 2
2018-Jun-15 21:08N 10°00' E 076°18'0 0.0 050 / 2
2018-Jun-15 18:08N 10°00' E 076°18'0 0.0 350 / 2
2018-Jun-15 14:38N 10°00' E 076°18'0 0.0 200 / 61009.6 28.4
2018-Jun-15 12:08N 10°00' E 076°18'0 0.0 230 / 6 28.2
2018-Jun-14 12:08N 10°00' E 076°18'0 0.0 260 / 4
2018-Jun-14 09:08N 10°00' E 076°18'0 0.0 240 / 2
2018-Jun-14 03:08N 10°00' E 076°18'0 0.0 340
2018-Jun-13 20:38N 10°00' E 076°18'0 0.0 240 / 12
2018-Jun-13 18:08N 10°00' E 076°18'0 0.0 210 / 4
2018-Jun-13 15:08N 10°00' E 076°18'0 0.0 260 / 2
2018-Jun-13 12:08N 10°00' E 076°18'13 4.4 080 / 2
2018-Jun-13 09:08N 09°54' E 076°06'13 4.4 220 / 21 26.3
2018-Jun-13 06:08N 09°48' E 075°54'6 2.0 010 / 58 27.8
2018-Jun-13 03:08N 09°54' E 075°54'0 0.0 340 / 621009.1 29.2
2018-Jun-12 23:38N 09°54' E 075°54'13 5.3 340 / 601007.8 29.0
2018-Jun-12 21:08N 09°48' E 076°06'0 0.0 320 / 601007.5 29.0
2018-Jun-12 18:08N 09°48' E 076°06'8 2.8 340 / 581009.5 29.2
2018-Jun-12 15:08N 09°42' E 076°00'   330 / 641008.7 29.2
Track history (hours):
 
Tides and Currents Weather Stations Pressure Air Temp Water Temp Dewpoint Dewpoint Depression Visibility Wind Speed Wind Dir Waves Ship Positions

Oceanographic research ship Sagar Sampada (India)

Detailed information on ship capabilities available from University of Delaware's Ocean Information Center.

Last reported at 2018-Jun-22 00:08 UTC. Time now 2018-Jun-23 04:46 UTC.
Position N 12°42' E 074°24'.

Type: Other ship. MMSI: 419323000.

Wind from 110 at 51 knots

Date/timePositionNaut miles runAvg speedWind from/ knotsBaromVisibWave heightAir tempDewpointWater temp
2018-Jun-22 00:08N 12°42' E 074°24'12 3.9 110 / 51
2018-Jun-21 21:08N 12°42' E 074°12'0 0.0 320 / 62
2018-Jun-21 18:08N 12°42' E 074°12'13 2.2 010 / 581008.3 26.4
2018-Jun-21 12:08N 12°36' E 074°00'37 4.1 250 / 621005.6 28.5
2018-Jun-21 03:08N 12°24' E 073°24'8 2.8 360 / 62
2018-Jun-21 00:08N 12°18' E 073°30'8 2.8 320 / 60
2018-Jun-20 21:08N 12°12' E 073°36'13 4.5 320 / 62
2018-Jun-20 18:08N 12°00' E 073°42'102 2.6 340 / 60
2018-Jun-19 03:08N 11°00' E 075°06'6 2.0 140 / 64
2018-Jun-19 00:08N 11°00' E 075°12'13 2.2 310 / 64 27.7
2018-Jun-18 18:08N 11°06' E 075°24'66 3.2 200 / 581009.3 29.3
2018-Jun-17 21:08N 10°00' E 075°18'22 2.3 310 / 581008.6 27.6
2018-Jun-17 11:38N 09°42' E 075°30'13 1.6 240 / 171008.4 28.7
2018-Jun-17 03:08N 09°48' E 075°42'12 3.9 230 / 161011.4 28.2
2018-Jun-17 00:08N 09°48' E 075°54'13 4.4 230 / 23
2018-Jun-16 21:08N 09°54' E 076°06'13 3.8 170 / 19
2018-Jun-16 17:38N 10°00' E 076°18'0 0.0 160 / 6
2018-Jun-16 12:08N 10°00' E 076°18'0 0.0 160 / 6
2018-Jun-16 09:08N 10°00' E 076°18'0 0.0 210 / 101009.4 29.3
2018-Jun-16 06:08N 10°00' E 076°18'0 0.0 280 / 41010.3 31.2
2018-Jun-16 03:08N 10°00' E 076°18'0 0.0 130
2018-Jun-16 00:08N 10°00' E 076°18'0 0.0 020 / 2
2018-Jun-15 21:08N 10°00' E 076°18'0 0.0 050 / 2
2018-Jun-15 18:08N 10°00' E 076°18'0 0.0 350 / 2
2018-Jun-15 14:38N 10°00' E 076°18'0 0.0 200 / 61009.6 28.4
2018-Jun-15 12:08N 10°00' E 076°18'0 0.0 230 / 6 28.2
2018-Jun-14 12:08N 10°00' E 076°18'0 0.0 260 / 4
2018-Jun-14 09:08N 10°00' E 076°18'0 0.0 240 / 2
2018-Jun-14 03:08N 10°00' E 076°18'0 0.0 340
2018-Jun-13 20:38N 10°00' E 076°18'0 0.0 240 / 12
2018-Jun-13 18:08N 10°00' E 076°18'0 0.0 210 / 4
2018-Jun-13 15:08N 10°00' E 076°18'0 0.0 260 / 2
2018-Jun-13 12:08N 10°00' E 076°18'13 4.4 080 / 2
2018-Jun-13 09:08N 09°54' E 076°06'13 4.4 220 / 21 26.3
2018-Jun-13 06:08N 09°48' E 075°54'6 2.0 010 / 58 27.8
2018-Jun-13 03:08N 09°54' E 075°54'0 0.0 340 / 621009.1 29.2
2018-Jun-12 23:38N 09°54' E 075°54'13 5.3 340 / 601007.8 29.0
2018-Jun-12 21:08N 09°48' E 076°06'0 0.0 320 / 601007.5 29.0
2018-Jun-12 18:08N 09°48' E 076°06'8 2.8 340 / 581009.5 29.2
2018-Jun-12 15:08N 09°42' E 076°00'   330 / 641008.7 29.2

Dump ship's entire track history